Ana Sayfa
METAR-TAF:

METAR-TAF

Havaalanları :

Kununurra, Avustralya

Enlem: 15-46S, Boylam: 128-42E, yükseklik: 44 m

Güncel hava durumu gözlemi

Rapor saat 21:00 UTC de 22 dakika önce yapıldı.
Sakin rüzgar
Sıcaklık 12°C
Basınç 1015 hPa
Görüş mesafesi 10 km veya daha fazla

METAR: YPKU 082100Z AUTO 00000KT 9999 // NCD 12/// Q1015

Saat: 05:22 (21:22 UTC)

Tahmin

Rapor saat 18:50 UTC de 2 saat ve 32 dakika önce yapıldı.
Ayın 08'si saat 20 UTC'den ayın 09'si saat 08 UTC'ye kadar geçerli Tahmin
Rüzgar değişken yönden 3 kt
Görüş mesafesi 10 km veya daha fazla
1500 m altında bulut yok ve kümülonimbus yok
Ayın 09'si saat 0100 UTC'den
Rüzgar doğudan 10 kt
Görüş mesafesi 10 km veya daha fazla
1500 m altında bulut yok ve kümülonimbus yok

TAF: YPKU 081850Z 0820/0908 VRB03KT CAVOK FM090100 10010KT CAVOK

4.000'den fazla havaalanı için hava durumu gözlemleri ve tahminleri (METAR ve TAF raporları).

Kullanılabilir istasyonlar harita üzerinde sarı ve kırmızı noktalarla gösterilir.

İstasyonun adını görmek için fareyi noktanın üzerinde gezdirin.

Sonrasında hava gözlem ve tahminlerini görmek için tıklayın.

Haritayı değiştirmek için: yaklaştırmak için siyah artı işaretli yeşil düğmeye ve uzaklaştırmak için de eksi işaretli düğmeye hızla tıklayın; bitişik haritalar için yeşil okları kullanın.


METAR-TAF: